Time;durP1;ratioP1;P1;durP2;ratioP2;P2;SDS_P1;SDS_P2;PMS_P1;PMS_P2;Temp;Humidity;BMP_temperature;BMP_pressure;BME280_temperature;BME280_humidity;BME280_pressure;Samples;Min_cycle;Max_cycle;Signal;HPM_P1;HPM_P2
2022/08/19 00:01:59;;;;;;;0.00;0.00;;;20.40;99.90;226.50;231333.00;;;;5086954;28;20193;-73
2022/08/19 00:04:32;;;;;;;0.00;0.00;;;20.40;99.90;226.50;231333.00;;;;5087313;28;20193;-72
2022/08/19 00:07:00;;;;;;;0.00;0.00;;;20.40;99.90;226.50;231333.00;;;;5086246;28;20529;-72
2022/08/19 00:09:30;;;;;;;0.00;0.00;;;20.30;99.90;226.50;231333.00;;;;5055255;28;20858;-72
2022/08/19 00:11:59;;;;;;;0.00;0.00;;;20.40;99.90;226.50;231333.00;;;;5073270;28;20225;-72
2022/08/19 00:14:31;;;;;;;0.00;0.00;;;20.20;99.90;226.50;231333.00;;;;5072758;28;20198;-73
2022/08/19 00:17:00;;;;;;;0.00;0.00;;;20.20;99.90;226.50;231333.00;;;;5070940;28;20203;-73
2022/08/19 00:19:28;;;;;;;0.00;0.00;;;20.20;99.90;226.50;231333.00;;;;5065928;28;20219;-73
2022/08/19 00:21:56;;;;;;;0.00;0.00;;;20.30;99.90;226.50;231333.00;;;;5077457;28;20208;-72
2022/08/19 00:24:28;;;;;;;0.00;0.00;;;20.30;99.90;226.50;231333.00;;;;5080300;28;20668;-73
2022/08/19 00:26:57;;;;;;;0.00;0.00;;;20.20;99.90;226.50;231333.00;;;;5077055;28;20200;-73
2022/08/19 00:29:46;;;;;;;0.00;0.00;;;20.20;99.90;226.50;231333.00;;;;5105392;23;20223;-73
2022/08/19 00:32:20;;;;;;;0.00;0.00;;;20.20;99.90;226.50;231333.00;;;;5054961;28;20217;-73
2022/08/19 00:34:48;;;;;;;0.00;0.00;;;20.30;99.90;226.50;231333.00;;;;5049807;28;20193;-73
2022/08/19 00:37:16;;;;;;;0.00;0.00;;;20.30;99.90;226.50;231333.00;;;;5063265;28;20195;-73
2022/08/19 00:39:44;;;;;;;0.00;0.00;;;20.30;99.90;226.50;231333.00;;;;5078495;28;20216;-73
2022/08/19 00:42:16;;;;;;;0.00;0.00;;;20.30;99.90;226.50;231333.00;;;;5069158;28;20209;-73
2022/08/19 00:44:45;;;;;;;0.00;0.00;;;20.30;99.90;226.50;231333.00;;;;5087185;28;20287;-74
2022/08/19 00:47:14;;;;;;;0.00;0.00;;;20.30;99.90;226.50;231333.00;;;;5084240;28;20620;-73
2022/08/19 00:49:50;;;;;;;0.00;0.00;;;20.30;99.90;226.50;231333.00;;;;5070986;28;20221;-70
2022/08/19 00:52:24;;;;;;;0.00;0.00;;;20.30;99.90;226.50;231333.00;;;;5069607;28;20449;-73
2022/08/19 00:54:53;;;;;;;0.00;0.00;;;20.30;99.90;226.50;231333.00;;;;5071897;28;20706;-73
2022/08/19 00:57:30;;;;;;;0.00;0.00;;;20.30;99.90;226.50;231333.00;;;;5068212;28;20652;-72
2022/08/19 01:00:02;;;;;;;0.00;0.00;;;20.30;99.90;226.50;231333.00;;;;5074691;28;20565;-72
2022/08/19 01:02:33;;;;;;;0.00;0.00;;;20.30;99.90;226.50;231333.00;;;;5081388;28;20197;-71
2022/08/19 01:05:07;;;;;;;0.00;0.00;;;20.30;99.90;226.50;231333.00;;;;5095698;28;20201;-71
2022/08/19 01:07:36;;;;;;;0.00;0.00;;;20.30;99.90;226.50;231333.00;;;;5077960;28;20710;-72
2022/08/19 01:10:10;;;;;;;0.00;0.00;;;20.20;99.90;226.50;231333.00;;;;5073887;28;20213;-72
2022/08/19 01:12:38;;;;;;;0.00;0.00;;;20.20;99.90;226.50;231333.00;;;;5059861;28;20587;-71
2022/08/19 01:15:12;;;;;;;0.00;0.00;;;20.20;99.90;226.50;231333.00;;;;5090670;28;20569;-71
2022/08/19 01:17:43;;;;;;;0.00;0.00;;;20.20;99.90;226.50;231333.00;;;;5065813;28;20209;-71
2022/08/19 01:20:15;;;;;;;0.00;0.00;;;20.10;99.90;226.50;231333.00;;;;5070215;28;20534;-72
2022/08/19 01:22:48;;;;;;;0.00;0.00;;;20.10;99.90;226.50;231333.00;;;;5064230;28;20197;-73
2022/08/19 01:25:20;;;;;;;0.00;0.00;;;20.10;99.90;226.50;231333.00;;;;5061508;28;20194;-72
2022/08/19 01:27:52;;;;;;;0.00;0.00;;;20.10;99.90;226.50;231333.00;;;;5066711;28;20228;-72
2022/08/19 01:30:26;;;;;;;0.00;0.00;;;20.10;99.90;226.50;231333.00;;;;5073701;28;20251;-72
2022/08/19 01:32:55;;;;;;;0.00;0.00;;;20.20;99.90;226.50;231333.00;;;;5053310;28;20237;-72
2022/08/19 01:35:29;;;;;;;0.00;0.00;;;20.30;99.90;226.50;231333.00;;;;5063685;28;20197;-73
2022/08/19 01:38:02;;;;;;;0.00;0.00;;;20.30;99.90;226.50;231333.00;;;;5062730;28;20193;-71
2022/08/19 01:40:33;;;;;;;0.00;0.00;;;20.30;99.90;226.50;231333.00;;;;5060719;28;20222;-71
2022/08/19 01:43:03;;;;;;;0.00;0.00;;;20.30;99.90;226.50;231333.00;;;;5071795;28;20212;-71
2022/08/19 01:45:34;;;;;;;0.00;0.00;;;20.30;99.90;226.50;231333.00;;;;5072225;28;20560;-71
2022/08/19 01:48:04;;;;;;;0.00;0.00;;;20.40;99.90;226.50;231333.00;;;;5067851;28;20201;-70
2022/08/19 01:50:34;;;;;;;0.00;0.00;;;20.40;99.90;226.50;231333.00;;;;5069880;28;20214;-72
2022/08/19 01:53:10;;;;;;;0.00;0.00;;;20.20;99.90;226.50;231333.00;;;;5068866;28;20707;-72
2022/08/19 01:55:43;;;;;;;0.00;0.00;;;20.10;99.90;226.50;231333.00;;;;5064137;28;20273;-73
2022/08/19 01:58:18;;;;;;;0.00;0.00;;;20.00;99.90;226.50;231333.00;;;;5063502;28;20664;-70
2022/08/19 02:00:46;;;;;;;0.00;0.00;;;20.10;99.90;226.50;231333.00;;;;5063861;28;20218;-71
2022/08/19 02:03:15;;;;;;;0.00;0.00;;;20.10;99.90;226.50;231333.00;;;;5088768;28;20201;-72
2022/08/19 02:05:45;;;;;;;0.00;0.00;;;20.20;99.90;226.50;231333.00;;;;5074095;28;20198;-72
2022/08/19 02:08:14;;;;;;;0.00;0.00;;;20.30;99.90;226.50;231333.00;;;;5068371;28;20649;-72
2022/08/19 02:10:44;;;;;;;0.00;0.00;;;20.30;99.90;226.50;231333.00;;;;5071971;28;20217;-72
2022/08/19 02:13:14;;;;;;;0.00;0.00;;;20.30;99.90;226.50;231333.00;;;;5072385;28;20225;-72
2022/08/19 02:15:45;;;;;;;0.00;0.00;;;20.30;99.90;226.50;231333.00;;;;5072074;28;20194;-72
2022/08/19 02:18:14;;;;;;;0.00;0.00;;;20.40;99.90;226.50;231333.00;;;;5045961;28;20213;-72
2022/08/19 02:20:44;;;;;;;0.00;0.00;;;20.40;99.90;226.50;231333.00;;;;5071231;28;20719;-72
2022/08/19 02:23:16;;;;;;;0.00;0.00;;;20.40;99.90;226.50;231333.00;;;;5068363;28;20232;-73
2022/08/19 02:25:47;;;;;;;0.00;0.00;;;20.20;99.90;226.50;231333.00;;;;5067641;28;20198;-72
2022/08/19 02:28:16;;;;;;;0.00;0.00;;;20.20;99.90;226.50;231333.00;;;;5063297;28;20201;-73
2022/08/19 02:30:48;;;;;;;0.00;0.00;;;20.20;99.90;226.50;231333.00;;;;5064402;28;20218;-72
2022/08/19 02:33:17;;;;;;;0.00;0.00;;;20.20;99.90;226.50;231333.00;;;;5076268;28;20217;-73
2022/08/19 02:35:46;;;;;;;0.00;0.00;;;20.20;99.90;226.50;231333.00;;;;5084571;28;20208;-73
2022/08/19 02:38:27;;;;;;;0.00;0.00;;;20.20;99.90;226.50;231333.00;;;;5080020;28;20193;-73
2022/08/19 02:40:59;;;;;;;0.00;0.00;;;20.20;99.90;226.50;231333.00;;;;5091830;28;20579;-72
2022/08/19 02:43:29;;;;;;;0.00;0.00;;;20.20;99.90;226.50;231333.00;;;;5055001;28;20198;-72
2022/08/19 02:46:03;;;;;;;0.00;0.00;;;20.10;99.90;226.50;231333.00;;;;5064163;28;20204;-72
2022/08/19 02:48:32;;;;;;;0.00;0.00;;;20.10;99.90;226.50;231333.00;;;;5071877;28;20244;-72
2022/08/19 02:51:00;;;;;;;0.00;0.00;;;20.10;99.90;226.50;231333.00;;;;5071734;28;20677;-73
2022/08/19 02:53:30;;;;;;;0.00;0.00;;;20.10;99.90;226.50;231333.00;;;;5082301;28;20224;-73
2022/08/19 02:55:58;;;;;;;0.00;0.00;;;20.20;99.90;226.50;231333.00;;;;5080644;28;20186;-73
2022/08/19 02:58:26;;;;;;;0.00;0.00;;;20.20;99.90;226.50;231333.00;;;;5080393;28;20204;-73
2022/08/19 03:00:57;;;;;;;0.00;0.00;;;20.20;99.90;226.50;231333.00;;;;5056365;28;20238;-73
2022/08/19 03:03:26;;;;;;;0.00;0.00;;;20.20;99.90;226.50;231333.00;;;;5081935;28;20205;-72
2022/08/19 03:06:10;;;;;;;0.00;0.00;;;20.30;99.90;226.50;231333.00;;;;5047969;28;20610;-72
2022/08/19 03:08:42;;;;;;;0.00;0.00;;;20.30;99.90;226.50;231333.00;;;;5062662;28;20204;-72
2022/08/19 03:11:15;;;;;;;0.00;0.00;;;20.30;99.90;226.50;231333.00;;;;5052511;28;20242;-72
2022/08/19 03:13:43;;;;;;;0.00;0.00;;;20.30;99.90;226.50;231333.00;;;;5070305;28;20209;-72
2022/08/19 03:16:13;;;;;;;0.00;0.00;;;20.30;99.90;226.50;231333.00;;;;5067145;28;20198;-72
2022/08/19 03:18:41;;;;;;;0.00;0.00;;;20.30;99.90;226.50;231333.00;;;;5069886;28;20531;-72
2022/08/19 03:21:10;;;;;;;0.00;0.00;;;20.30;99.90;226.50;231333.00;;;;5067161;28;20226;-72
2022/08/19 03:23:40;;;;;;;0.00;0.00;;;20.30;99.90;226.50;231333.00;;;;5069667;28;20231;-72
2022/08/19 03:26:08;;;;;;;0.00;0.00;;;20.20;99.90;226.50;166856.00;;;;5070082;28;20193;-72
2022/08/19 03:28:44;;;;;;;0.00;0.00;;;20.00;99.90;226.50;231333.00;;;;5070059;28;20193;-73
2022/08/19 03:31:27;;;;;;;0.00;0.00;;;20.00;99.90;226.50;231333.00;;;;5062411;28;20222;-71
2022/08/19 03:34:19;;;;;;;0.00;0.00;;;20.00;99.90;226.50;231333.00;;;;5063348;28;20221;-71
2022/08/19 03:36:48;;;;;;;0.00;0.00;;;19.90;99.90;226.50;231333.00;;;;5077838;28;20204;-71
2022/08/19 03:39:18;;;;;;;0.00;0.00;;;19.80;99.90;226.50;231333.00;;;;5053294;28;20206;-72
2022/08/19 03:41:49;;;;;;;0.00;0.00;;;19.90;99.90;226.50;231333.00;;;;5065388;28;20190;-71
2022/08/19 03:44:38;;;;;;;0.00;0.00;;;19.90;99.90;226.50;231333.00;;;;5064847;28;20209;-71
2022/08/19 03:47:06;;;;;;;0.00;0.00;;;19.90;99.90;226.50;231333.00;;;;5068504;28;20228;-72
2022/08/19 03:49:34;;;;;;;0.00;0.00;;;19.80;99.90;226.50;231333.00;;;;5086954;28;20200;-71
2022/08/19 03:52:07;;;;;;;0.00;0.00;;;19.90;99.90;226.50;231333.00;;;;5085003;28;20200;-71
2022/08/19 03:54:38;;;;;;;0.00;0.00;;;19.80;99.90;226.50;231333.00;;;;5075289;28;20274;-75
2022/08/19 03:57:08;;;;;;;0.00;0.00;;;19.80;99.90;226.50;231333.00;;;;5062420;28;20217;-73
2022/08/19 03:59:40;;;;;;;0.00;0.00;;;19.70;99.90;226.50;231333.00;;;;5061739;28;20623;-73
2022/08/19 04:02:12;;;;;;;0.00;0.00;;;19.70;99.90;226.50;231333.00;;;;5075557;28;20200;-73
2022/08/19 04:04:43;;;;;;;0.00;0.00;;;19.80;99.90;226.50;231333.00;;;;5091339;28;20660;-72
2022/08/19 04:07:15;;;;;;;0.00;0.00;;;19.70;99.90;226.50;231333.00;;;;5059717;28;20216;-73
2022/08/19 04:09:45;;;;;;;0.00;0.00;;;19.60;99.90;226.50;231333.00;;;;5071240;28;20205;-74
2022/08/19 04:12:13;;;;;;;0.00;0.00;;;19.60;99.90;226.50;231333.00;;;;5073335;28;20204;-75
2022/08/19 04:14:48;;;;;;;0.00;0.00;;;19.60;99.90;226.50;231333.00;;;;5070630;28;20236;-75
2022/08/19 04:17:16;;;;;;;0.00;0.00;;;19.60;99.90;226.50;231333.00;;;;5070831;28;20227;-74
2022/08/19 04:19:44;;;;;;;0.00;0.00;;;19.60;99.90;226.50;231333.00;;;;5067595;28;20221;-74
2022/08/19 04:22:12;;;;;;;0.00;0.00;;;19.70;99.90;226.50;231333.00;;;;5064783;28;20221;-75
2022/08/19 04:24:40;;;;;;;0.00;0.00;;;19.70;99.90;226.50;231333.00;;;;5082160;28;20210;-75
2022/08/19 04:27:09;;;;;;;0.00;0.00;;;19.70;99.90;226.50;231333.00;;;;5081394;28;20194;-75
2022/08/19 04:29:39;;;;;;;0.05;0.05;;;19.70;99.90;226.50;231333.00;;;;5063004;28;20704;-75
2022/08/19 04:32:07;;;;;;;0.00;0.00;;;19.80;99.90;226.50;231333.00;;;;5067074;28;20212;-74
2022/08/19 04:34:38;;;;;;;0.00;0.00;;;19.80;99.90;226.50;231333.00;;;;5065389;28;20251;-74
2022/08/19 04:37:27;;;;;;;0.00;0.00;;;19.80;99.90;226.50;231333.00;;;;5063380;28;20619;-74
2022/08/19 04:42:53;;;;;;;0.00;0.00;;;19.80;99.90;226.50;231333.00;;;;5065861;28;20219;-73
2022/08/19 04:45:21;;;;;;;0.00;0.00;;;19.90;99.90;226.50;231333.00;;;;5075154;28;20703;-73
2022/08/19 04:47:50;;;;;;;0.00;0.00;;;19.90;99.90;226.50;231333.00;;;;5067083;28;20247;-74
2022/08/19 04:50:27;;;;;;;0.00;0.00;;;20.00;99.90;226.50;231333.00;;;;5070409;28;20254;-75
2022/08/19 04:52:55;;;;;;;0.00;0.00;;;20.00;99.90;226.50;231333.00;;;;5076411;28;20193;-74
2022/08/19 04:55:26;;;;;;;0.00;0.00;;;20.00;99.90;226.50;231333.00;;;;5080252;28;20197;-74
2022/08/19 04:57:55;;;;;;;0.00;0.00;;;20.00;99.90;226.50;231333.00;;;;5073848;28;20590;-74
2022/08/19 05:00:24;;;;;;;0.00;0.00;;;20.00;99.90;226.50;231333.00;;;;5073571;28;20225;-74
2022/08/19 05:02:52;;;;;;;0.00;0.00;;;20.10;99.90;226.50;231333.00;;;;5081654;28;20185;-74
2022/08/19 05:05:21;;;;;;;0.00;0.00;;;20.00;99.90;226.50;231333.00;;;;5072628;28;20301;-74
2022/08/19 05:07:49;;;;;;;0.00;0.00;;;20.10;99.90;226.50;231333.00;;;;5089720;28;20239;-73
2022/08/19 05:10:17;;;;;;;0.00;0.00;;;20.00;99.90;226.50;231333.00;;;;5071105;28;20206;-73
2022/08/19 05:12:45;;;;;;;0.00;0.00;;;20.00;99.90;226.50;231333.00;;;;5074067;28;20200;-73
2022/08/19 05:15:15;;;;;;;0.00;0.00;;;19.90;99.90;226.50;231333.00;;;;5081037;28;20225;-73
2022/08/19 05:22:31;;;;;;;0.00;0.00;;;20.00;99.90;226.50;231333.00;;;;5074023;28;20193;-74
2022/08/19 05:23:16;;;;;;;0.00;0.00;;;19.90;99.90;226.50;231333.00;;;;5058404;28;20200;-73
2022/08/19 05:25:51;;;;;;;0.00;0.00;;;19.80;99.90;226.50;231333.00;;;;5072747;28;20275;-73
2022/08/19 05:28:20;;;;;;;0.00;0.00;;;19.80;99.90;226.50;231333.00;;;;5074160;28;20198;-73
2022/08/19 05:30:50;;;;;;;0.00;0.00;;;19.80;99.90;226.50;231333.00;;;;5067455;28;20228;-73
2022/08/19 05:33:19;;;;;;;0.00;0.00;;;19.80;99.90;226.50;231333.00;;;;5075934;28;20220;-72
2022/08/19 05:35:49;;;;;;;0.00;0.00;;;19.80;99.90;226.50;231333.00;;;;5077958;28;20204;-73
2022/08/19 05:38:18;;;;;;;0.00;0.00;;;19.80;99.90;226.50;231333.00;;;;5073580;28;20193;-72
2022/08/19 05:40:47;;;;;;;0.00;0.00;;;19.80;99.90;226.50;231333.00;;;;5070226;28;20221;-70
2022/08/19 05:43:16;;;;;;;0.00;0.00;;;19.80;99.90;226.50;231333.00;;;;5072869;28;20225;-70
2022/08/19 05:45:45;;;;;;;0.00;0.00;;;19.90;99.90;226.50;231333.00;;;;5062416;28;20203;-70
2022/08/19 05:48:14;;;;;;;0.00;0.00;;;19.80;99.90;226.50;231333.00;;;;5059684;28;20213;-70
2022/08/19 05:50:45;;;;;;;0.00;0.00;;;19.80;99.90;226.50;231333.00;;;;5062394;28;20218;-70
2022/08/19 05:53:14;;;;;;;0.00;0.00;;;19.80;99.90;226.50;231333.00;;;;5090015;28;20201;-70
2022/08/19 05:55:42;;;;;;;0.00;0.00;;;19.90;99.90;226.50;231333.00;;;;5084937;28;20213;-71
2022/08/19 05:58:11;;;;;;;0.00;0.00;;;19.80;99.90;226.50;231333.00;;;;5052413;28;20268;-71
2022/08/19 06:00:39;;;;;;;0.00;0.00;;;19.80;99.90;226.50;231333.00;;;;5061001;28;20214;-71
2022/08/19 06:03:07;;;;;;;0.00;0.00;;;19.70;99.90;226.50;231333.00;;;;5080096;28;20203;-71
2022/08/19 06:05:42;;;;;;;0.00;0.00;;;19.60;99.90;226.50;231333.00;;;;5066336;28;20273;-71
2022/08/19 06:08:20;;;;;;;0.00;0.00;;;19.60;99.90;226.50;231333.00;;;;5073368;28;20220;-71
2022/08/19 06:11:16;;;;;;;0.00;0.00;;;19.60;99.90;226.50;231333.00;;;;5068680;28;20225;-71
2022/08/19 06:13:50;;;;;;;0.00;0.00;;;19.60;99.90;226.50;231333.00;;;;5090767;28;20396;-70
2022/08/19 06:16:22;;;;;;;0.00;0.00;;;19.60;99.90;226.50;231333.00;;;;5068491;28;20197;-70
2022/08/19 06:18:52;;;;;;;0.00;0.00;;;19.60;99.90;226.50;231333.00;;;;5072950;28;20198;-71
2022/08/19 06:21:24;;;;;;;0.00;0.00;;;19.60;99.90;226.50;231333.00;;;;5064931;28;20228;-71
2022/08/19 06:23:53;;;;;;;0.00;0.00;;;19.60;99.90;226.50;231333.00;;;;5053567;28;20206;-70
2022/08/19 06:26:23;;;;;;;0.03;0.03;;;19.60;99.90;226.50;231333.00;;;;5073416;28;20205;-70
2022/08/19 06:28:51;;;;;;;0.00;0.00;;;19.60;99.90;226.50;231333.00;;;;5069941;28;20293;-70
2022/08/19 06:31:22;;;;;;;0.00;0.00;;;19.60;99.90;226.50;231333.00;;;;5068629;22;20605;-71
2022/08/19 06:33:51;;;;;;;0.00;0.00;;;19.60;99.90;226.50;231333.00;;;;5014483;28;20203;-71
2022/08/19 06:36:31;;;;;;;0.00;0.00;;;19.60;99.90;226.50;231333.00;;;;5052567;28;20197;-71
2022/08/19 06:38:59;;;;;;;0.00;0.00;;;19.60;99.90;226.50;231333.00;;;;5051977;28;20198;-72
2022/08/19 06:41:29;;;;;;;0.00;0.00;;;19.70;99.90;226.50;231333.00;;;;5059450;28;20214;-72
2022/08/19 06:43:58;;;;;;;0.00;0.00;;;19.70;99.90;226.50;231333.00;;;;5070410;28;20563;-72
2022/08/19 06:46:27;;;;;;;0.00;0.00;;;19.70;99.90;226.50;231333.00;;;;5033044;28;20219;-71
2022/08/19 06:48:55;;;;;;;0.00;0.00;;;19.70;99.90;226.50;231333.00;;;;5038953;28;20252;-71
2022/08/19 06:51:25;;;;;;;0.00;0.00;;;19.80;99.90;226.50;231333.00;;;;5023392;28;20277;-72
2022/08/19 06:53:58;;;;;;;0.00;0.00;;;19.80;99.90;226.50;231333.00;;;;5037075;28;20194;-71
2022/08/19 06:56:34;;;;;;;0.00;0.00;;;19.80;99.90;226.50;231333.00;;;;5051337;28;20214;-71
2022/08/19 06:59:04;;;;;;;0.00;0.00;;;19.80;99.90;226.50;231333.00;;;;5053559;28;20206;-71
2022/08/19 07:01:37;;;;;;;0.00;0.00;;;19.80;99.90;226.50;231333.00;;;;5070539;28;20217;-72
2022/08/19 07:04:08;;;;;;;0.00;0.00;;;19.80;99.90;226.50;231333.00;;;;5050377;28;20195;-72
2022/08/19 07:06:40;;;;;;;0.00;0.00;;;19.80;99.90;226.50;231333.00;;;;5050630;28;20194;-72
2022/08/19 07:09:14;;;;;;;0.00;0.00;;;19.90;99.90;226.50;231333.00;;;;5050611;28;20249;-72
2022/08/19 07:11:47;;;;;;;0.00;0.00;;;19.80;99.90;226.50;231333.00;;;;5050827;28;20301;-70
2022/08/19 07:14:18;;;;;;;0.00;0.00;;;19.90;99.90;226.50;231333.00;;;;5049443;28;20661;-72
2022/08/19 07:16:51;;;;;;;0.00;0.00;;;19.90;99.90;226.50;231333.00;;;;5039267;28;20693;-73
2022/08/19 07:19:20;;;;;;;0.00;0.00;;;19.90;99.90;226.50;231333.00;;;;5070745;28;20194;-73
2022/08/19 07:21:52;;;;;;;0.00;0.00;;;19.90;99.90;226.50;231333.00;;;;5068628;28;20225;-72
2022/08/19 07:24:24;;;;;;;0.00;0.00;;;19.90;99.90;226.50;231333.00;;;;5068876;28;20656;-72
2022/08/19 07:26:56;;;;;;;0.00;0.00;;;20.00;99.90;226.50;231333.00;;;;5051973;28;20198;-72
2022/08/19 07:29:24;;;;;;;0.00;0.00;;;20.00;99.90;226.50;231333.00;;;;5051865;28;20248;-73
2022/08/19 07:31:58;;;;;;;0.00;0.00;;;20.00;99.90;226.50;231333.00;;;;5051268;28;20214;-72
2022/08/19 07:34:30;;;;;;;0.00;0.00;;;20.10;99.90;226.50;231333.00;;;;5035662;28;20214;-70
2022/08/19 07:37:00;;;;;;;0.00;0.00;;;20.30;99.90;226.50;231333.00;;;;5031503;28;20560;-72
2022/08/19 07:39:32;;;;;;;0.00;0.00;;;20.30;99.90;226.50;231333.00;;;;5033559;28;20556;-72
2022/08/19 07:42:07;;;;;;;0.00;0.00;;;20.30;99.90;226.50;231333.00;;;;5047592;28;20210;-73
2022/08/19 07:44:38;;;;;;;0.00;0.00;;;20.20;99.90;226.50;231333.00;;;;5040028;28;20194;-72
2022/08/19 07:47:11;;;;;;;0.00;0.00;;;20.30;99.90;226.50;231333.00;;;;5050644;28;20205;-73
2022/08/19 07:49:59;;;;;;;0.00;0.00;;;20.30;99.90;226.50;231333.00;;;;5048800;28;20319;-73
2022/08/19 07:52:29;;;;;;;0.00;0.00;;;20.20;99.90;226.50;231333.00;;;;5041880;28;20214;-72
2022/08/19 07:54:57;;;;;;;0.00;0.00;;;20.10;99.90;226.50;231333.00;;;;5044937;28;20221;-72
2022/08/19 07:57:24;;;;;;;0.00;0.00;;;20.10;99.90;226.50;231333.00;;;;5042389;28;20534;-73
2022/08/19 07:59:53;;;;;;;0.00;0.00;;;20.10;99.90;226.50;231333.00;;;;5053870;28;20772;-72
2022/08/19 08:02:21;;;;;;;0.00;0.00;;;20.10;99.90;226.50;231333.00;;;;5052124;28;20273;-73
2022/08/19 08:10:29;;;;;;;0.00;0.00;;;20.00;99.90;226.50;231333.00;;;;5015909;28;20574;-72
2022/08/19 08:12:58;;;;;;;0.00;0.00;;;20.10;99.90;226.50;231333.00;;;;5042662;28;20193;-73
2022/08/19 08:15:39;;;;;;;0.00;0.00;;;20.10;99.90;226.50;231333.00;;;;5039348;28;20220;-73
2022/08/19 08:18:11;;;;;;;0.00;0.00;;;20.00;99.90;226.50;231333.00;;;;5053203;28;20613;-72
2022/08/19 08:20:41;;;;;;;0.00;0.00;;;20.00;99.90;226.50;231333.00;;;;5057355;28;20221;-72
2022/08/19 08:23:25;;;;;;;0.00;0.00;;;19.90;99.90;226.50;231333.00;;;;5056641;28;20198;-72
2022/08/19 08:25:58;;;;;;;0.00;0.00;;;19.90;99.90;226.50;231333.00;;;;5056431;28;20194;-73
2022/08/19 08:28:29;;;;;;;0.00;0.00;;;20.00;99.90;226.50;231333.00;;;;5054039;28;20194;-73
2022/08/19 08:30:59;;;;;;;0.00;0.00;;;19.90;99.90;226.50;231333.00;;;;5051094;28;20214;-73
2022/08/19 08:33:30;;;;;;;0.00;0.00;;;20.00;99.90;226.50;231333.00;;;;5041696;28;20205;-73
2022/08/19 08:36:02;;;;;;;0.00;0.00;;;19.90;99.90;226.50;231333.00;;;;5066819;28;20210;-73
2022/08/19 08:38:34;;;;;;;0.00;0.00;;;19.90;99.90;226.50;231333.00;;;;5069543;28;20213;-73
2022/08/19 08:41:20;;;;;;;0.00;0.00;;;19.90;99.90;226.50;231333.00;;;;5080420;28;20257;-71
2022/08/19 08:43:53;;;;;;;0.00;0.00;;;20.00;99.90;226.50;231333.00;;;;5075834;28;20206;-71
2022/08/19 08:46:30;;;;;;;0.00;0.00;;;20.10;99.90;226.50;231333.00;;;;5057946;28;21660;-71
2022/08/19 08:49:08;;;;;;;0.00;0.00;;;20.20;99.90;226.50;231333.00;;;;5054742;28;20198;-70
2022/08/19 08:51:43;;;;;;;0.00;0.00;;;20.20;99.90;226.50;231333.00;;;;5053431;28;20233;-71
2022/08/19 08:54:24;;;;;;;0.00;0.00;;;20.30;99.90;226.50;231333.00;;;;5045749;28;20194;-73
2022/08/19 08:56:54;;;;;;;0.00;0.00;;;20.30;99.90;226.50;231333.00;;;;5040686;28;20218;-71
2022/08/19 08:59:32;;;;;;;0.00;0.00;;;20.40;99.90;226.50;231333.00;;;;5029112;28;20207;-70
2022/08/19 09:02:01;;;;;;;0.00;0.00;;;20.40;99.90;226.50;231333.00;;;;5038350;28;20229;-73
2022/08/19 09:04:29;;;;;;;0.00;0.00;;;20.50;99.90;226.50;231333.00;;;;5049553;28;20273;-70
2022/08/19 09:07:20;;;;;;;0.00;0.00;;;20.50;99.90;226.50;231333.00;;;;5050762;28;20202;-71
2022/08/19 09:10:20;;;;;;;0.00;0.00;;;20.50;99.90;226.50;231333.00;;;;5051057;28;20288;-70
2022/08/19 09:13:10;;;;;;;0.00;0.00;;;20.50;99.90;226.50;231333.00;;;;5054101;28;20252;-75
2022/08/19 09:15:46;;;;;;;0.00;0.00;;;20.50;99.90;226.50;231333.00;;;;5054883;28;20577;-74
2022/08/19 09:18:16;;;;;;;0.00;0.00;;;20.60;99.90;226.50;231333.00;;;;5037357;28;20752;-71
2022/08/19 09:20:48;;;;;;;0.00;0.00;;;20.60;99.90;226.50;231333.00;;;;5033998;28;20250;-71
2022/08/19 09:23:16;;;;;;;0.00;0.00;;;20.60;99.90;226.50;231333.00;;;;5044474;28;20206;-70
2022/08/19 09:25:48;;;;;;;0.00;0.00;;;20.60;99.90;226.50;231333.00;;;;5054312;28;20198;-71
2022/08/19 09:28:20;;;;;;;0.00;0.00;;;20.70;99.90;226.50;231333.00;;;;5053445;28;20205;-70
2022/08/19 09:30:54;;;;;;;0.00;0.00;;;20.70;99.90;226.50;231333.00;;;;5053442;28;20222;-73
2022/08/19 09:33:22;;;;;;;0.00;0.00;;;20.60;99.90;226.50;231333.00;;;;5053612;28;20194;-70
2022/08/19 09:35:50;;;;;;;0.00;0.00;;;20.60;99.90;226.50;231333.00;;;;5053571;28;20218;-71
2022/08/19 09:38:21;;;;;;;0.00;0.00;;;20.60;99.90;226.50;231333.00;;;;5046879;28;20218;-73
2022/08/19 09:40:50;;;;;;;0.00;0.00;;;20.60;99.90;226.50;231333.00;;;;5068969;28;20213;-73
2022/08/19 09:43:18;;;;;;;0.00;0.00;;;20.50;99.90;226.50;231333.00;;;;5051212;28;20222;-70
2022/08/19 09:46:01;;;;;;;0.00;0.00;;;20.50;99.90;226.50;231333.00;;;;5033497;28;20219;-71
2022/08/19 09:48:29;;;;;;;0.00;0.00;;;20.50;99.90;226.50;231333.00;;;;5044231;28;20213;-70
2022/08/19 09:51:04;;;;;;;0.00;0.00;;;20.50;99.90;226.50;231333.00;;;;5027027;28;20600;-72
2022/08/19 09:53:33;;;;;;;0.00;0.00;;;20.50;99.90;226.50;231333.00;;;;5046906;28;20198;-73
2022/08/19 09:56:03;;;;;;;0.00;0.00;;;20.50;99.90;226.50;231333.00;;;;5048125;28;20218;-73
2022/08/19 09:58:32;;;;;;;0.00;0.00;;;20.50;99.90;226.50;231333.00;;;;5070103;28;20212;-73
2022/08/19 10:01:03;;;;;;;0.00;0.00;;;20.50;99.90;226.50;231333.00;;;;5057873;28;20256;-71
2022/08/19 10:03:33;;;;;;;0.00;0.00;;;20.50;99.90;226.50;231333.00;;;;5047534;28;20206;-70
2022/08/19 10:06:05;;;;;;;0.00;0.00;;;20.50;99.90;226.50;231333.00;;;;5053754;28;20201;-70
2022/08/19 10:08:44;;;;;;;0.00;0.00;;;20.50;99.90;226.50;231333.00;;;;5054608;28;20766;-73
2022/08/19 10:11:20;;;;;;;0.00;0.00;;;20.50;99.90;226.50;231333.00;;;;5054101;28;20214;-73
2022/08/19 10:14:05;;;;;;;0.00;0.00;;;20.50;99.90;226.50;231333.00;;;;5053580;28;20216;-73
2022/08/19 10:16:34;;;;;;;0.00;0.00;;;20.50;99.90;226.50;231333.00;;;;5053986;28;20697;-73
2022/08/19 10:19:06;;;;;;;0.00;0.00;;;20.60;99.90;226.50;231333.00;;;;5063628;28;20262;-74
2022/08/19 10:21:35;;;;;;;0.00;0.00;;;20.60;99.90;226.50;231333.00;;;;5073135;28;20220;-75
2022/08/19 10:24:06;;;;;;;0.00;0.00;;;20.60;99.90;226.50;231333.00;;;;5072097;28;20198;-74
2022/08/19 10:26:45;;;;;;;0.00;0.00;;;20.50;99.90;226.50;231333.00;;;;5069015;28;20731;-74
2022/08/19 10:29:15;;;;;;;0.00;0.00;;;20.50;99.90;226.50;231333.00;;;;5041832;28;20205;-74
2022/08/19 10:32:01;;;;;;;0.00;0.00;;;20.50;99.90;226.50;231333.00;;;;5070645;28;20190;-75
2022/08/19 10:34:31;;;;;;;0.00;0.00;;;20.50;99.90;226.50;231333.00;;;;5053941;28;20195;-75
2022/08/19 10:37:00;;;;;;;0.00;0.00;;;20.50;99.90;226.50;231333.00;;;;5044881;28;20309;-75
2022/08/19 10:39:31;;;;;;;0.00;0.00;;;20.60;99.90;226.50;231333.00;;;;5040767;28;20227;-74
2022/08/19 10:42:12;;;;;;;0.00;0.00;;;20.50;99.90;226.50;231333.00;;;;5032896;28;20203;-74
2022/08/19 10:44:42;;;;;;;0.00;0.00;;;20.50;99.90;226.50;231333.00;;;;5047484;28;20285;-74
2022/08/19 10:47:11;;;;;;;0.00;0.00;;;20.50;99.90;226.50;231333.00;;;;5052434;28;20214;-74
2022/08/19 10:52:40;;;;;;;0.00;0.00;;;20.50;99.90;226.50;231333.00;;;;5044701;28;20205;-74
2022/08/19 10:58:14;;;;;;;0.00;0.00;;;20.40;99.90;226.50;231333.00;;;;5050932;28;20227;-75
2022/08/19 11:00:51;;;;;;;0.00;0.00;;;20.40;99.90;226.50;231333.00;;;;5053126;28;20302;-74
2022/08/19 11:03:19;;;;;;;0.00;0.00;;;20.50;99.90;226.50;231333.00;;;;5059906;28;20265;-74
2022/08/19 11:05:49;;;;;;;0.00;0.00;;;20.50;99.90;226.50;231333.00;;;;5040136;28;20370;-73
2022/08/19 11:08:17;;;;;;;0.00;0.00;;;20.50;99.90;226.50;231333.00;;;;5057297;28;20210;-74
2022/08/19 11:10:57;;;;;;;0.00;0.00;;;20.50;99.90;226.50;231333.00;;;;5072501;28;20217;-75
2022/08/19 11:13:27;;;;;;;0.00;0.00;;;20.50;99.90;226.50;231333.00;;;;5072225;28;20276;-74
2022/08/19 11:16:01;;;;;;;0.00;0.00;;;20.50;99.90;226.50;231333.00;;;;5069810;28;20187;-74
2022/08/19 11:18:37;;;;;;;0.00;0.00;;;20.60;99.90;226.50;231333.00;;;;5051031;28;20759;-75